Time;durP1;ratioP1;P1;durP2;ratioP2;P2;SDS_P1;SDS_P2;PMS_P1;PMS_P2;Temp;Humidity;BMP_temperature;BMP_pressure;BME280_temperature;BME280_humidity;BME280_pressure;Samples;Min_cycle;Max_cycle;Signal;HPM_P1;HPM_P2
2021/12/16 00:01:41;;;;;;;7.90;4.93;;;;;;;0.42;73.54;98995.84;5155031;27;20134;-55
2021/12/16 00:30:51;;;;;;;14.32;6.18;;;;;;;0.54;73.94;98942.22;5154442;27;20039;-55
2021/12/16 00:33:16;;;;;;;13.07;5.88;;;;;;;0.48;74.05;98936.94;5152917;27;20039;-56
2021/12/16 00:35:46;;;;;;;14.07;6.25;;;;;;;0.43;74.30;98930.44;5152484;27;20061;-55
2021/12/16 00:38:12;;;;;;;12.10;6.10;;;;;;;0.50;73.95;98930.53;5135418;27;20058;-56
2021/12/16 00:40:41;;;;;;;10.75;5.85;;;;;;;0.56;74.19;98913.31;5152822;27;20351;-54
2021/12/16 00:43:22;;;;;;;12.95;5.80;;;;;;;0.53;73.78;98904.09;5153509;27;20194;-54
2021/12/16 00:46:13;;;;;;;12.38;5.75;;;;;;;0.51;73.51;98900.84;5152718;27;20113;-54
2021/12/16 00:56:33;;;;;;;12.10;5.97;;;;;;;0.70;73.22;98899.44;5132039;27;20089;-55
2021/12/16 00:59:01;;;;;;;14.18;6.18;;;;;;;0.79;73.29;98889.69;5131863;27;20421;-54
2021/12/16 01:01:47;;;;;;;11.80;6.38;;;;;;;0.78;73.14;98882.88;5151749;27;20042;-52
2021/12/16 01:33:32;;;;;;;11.23;6.18;;;;;;;0.57;74.21;98844.53;5151439;27;20042;-56
2021/12/16 01:51:24;;;;;;;8.73;4.82;;;;;;;0.43;75.69;98745.31;5151907;27;20042;-56
2021/12/16 01:56:52;;;;;;;9.38;4.95;;;;;;;0.38;75.91;98736.44;5134266;27;20055;-54
2021/12/16 01:59:21;;;;;;;8.88;5.03;;;;;;;0.33;76.27;98718.75;5151873;27;20129;-56
2021/12/16 02:01:48;;;;;;;11.67;6.23;;;;;;;0.38;76.41;98724.22;5151812;27;20080;-55
2021/12/16 02:04:26;;;;;;;9.57;5.18;;;;;;;0.30;76.09;98716.53;5150855;27;20509;-55
2021/12/16 02:07:10;;;;;;;8.50;4.28;;;;;;;0.32;76.27;98698.88;5151483;27;20039;-56
2021/12/16 02:09:43;;;;;;;10.88;5.53;;;;;;;0.31;76.40;98681.63;5156411;27;20043;-55
2021/12/16 02:28:44;;;;;;;5.72;3.63;;;;;;;0.32;76.13;98641.53;5155650;27;20043;-55
2021/12/16 02:36:56;;;;;;;6.57;4.20;;;;;;;0.33;76.99;98637.16;5134185;27;20074;-52
2021/12/16 02:39:31;;;;;;;7.97;4.80;;;;;;;0.28;76.94;98650.75;5140313;27;20499;-55
2021/12/16 02:42:12;;;;;;;7.68;3.83;;;;;;;0.37;76.57;98639.16;5155198;27;20038;-56
2021/12/16 02:48:29;;;;;;;9.35;4.35;;;;;;;0.39;77.25;98641.59;5155052;27;20049;-55
2021/12/16 02:50:10;;;;;;;6.53;3.92;;;;;;;0.55;76.77;98641.28;5156406;27;20039;-54
2021/12/16 02:52:36;;;;;;;6.93;3.75;;;;;;;0.56;76.57;98639.50;5137523;27;20046;-54
2021/12/16 02:55:03;;;;;;;6.18;3.75;;;;;;;0.49;76.25;98647.28;5156339;27;20047;-54
2021/12/16 02:57:30;;;;;;;5.75;3.55;;;;;;;0.48;76.68;98650.09;5154680;27;20520;-56
2021/12/16 02:59:56;;;;;;;7.45;3.97;;;;;;;0.38;76.81;98638.19;5133218;27;20500;-58
2021/12/16 03:02:24;;;;;;;6.20;3.53;;;;;;;0.44;76.90;98640.03;5134089;27;20065;-57
2021/12/16 03:04:52;;;;;;;6.30;3.92;;;;;;;0.41;77.27;98636.97;5135204;27;20039;-54
2021/12/16 03:07:19;;;;;;;6.93;3.72;;;;;;;0.50;77.14;98633.25;5123278;27;20035;-56
2021/12/16 03:12:49;;;;;;;8.68;4.55;;;;;;;0.42;76.72;98633.41;5155551;27;20069;-54
2021/12/16 03:17:59;;;;;;;7.80;4.30;;;;;;;0.49;77.36;98618.59;5154762;27;20043;-54
2021/12/16 03:20:40;;;;;;;4.90;3.45;;;;;;;0.51;77.26;98618.41;5153258;27;20099;-54
2021/12/16 03:25:52;;;;;;;5.68;3.08;;;;;;;0.61;77.16;98624.88;5154308;27;20119;-56
2021/12/16 03:28:56;;;;;;;6.15;3.58;;;;;;;0.73;77.43;98611.31;5133306;27;20078;-56
2021/12/16 03:37:14;;;;;;;6.13;2.92;;;;;;;0.72;76.42;98600.06;5153788;27;20039;-55
2021/12/16 03:39:53;;;;;;;5.25;3.00;;;;;;;0.71;76.22;98592.41;5155133;27;20408;-55
2021/12/16 03:42:33;;;;;;;4.70;3.08;;;;;;;0.60;76.80;98599.00;5154767;27;20126;-55
2021/12/16 03:46:25;;;;;;;5.95;3.33;;;;;;;0.58;76.79;98596.56;5136597;27;20034;-56
2021/12/16 03:47:58;;;;;;;6.95;3.33;;;;;;;0.62;77.25;98595.22;5153570;27;20091;-54
2021/12/16 03:50:24;;;;;;;5.90;2.95;;;;;;;0.68;76.52;98589.22;5153559;27;20042;-55
2021/12/16 03:52:50;;;;;;;5.43;3.55;;;;;;;0.65;77.40;98584.38;5152236;27;20064;-54
2021/12/16 03:55:18;;;;;;;4.68;3.20;;;;;;;0.75;76.84;98576.19;5136115;27;20038;-55
2021/12/16 03:57:44;;;;;;;5.55;3.38;;;;;;;0.77;76.89;98581.25;5153054;27;20114;-56
2021/12/16 04:00:21;;;;;;;4.97;3.03;;;;;;;0.81;76.85;98580.66;5153421;27;20046;-57
2021/12/16 04:02:52;;;;;;;4.75;2.85;;;;;;;0.76;76.65;98571.78;5153006;27;20050;-55
2021/12/16 04:05:25;;;;;;;4.93;3.00;;;;;;;0.82;76.42;98566.59;5153255;27;20034;-55
2021/12/16 04:07:51;;;;;;;6.85;3.28;;;;;;;0.79;76.65;98553.94;5152972;27;20438;-54
2021/12/16 04:10:47;;;;;;;4.88;3.00;;;;;;;0.81;76.20;98545.94;5148352;27;20059;-55
2021/12/16 04:13:17;;;;;;;3.70;2.63;;;;;;;0.80;76.32;98542.53;5152060;27;20035;-54
2021/12/16 04:15:47;;;;;;;4.65;2.80;;;;;;;0.79;77.41;98540.09;5119556;27;20125;-54
2021/12/16 04:18:14;;;;;;;5.97;3.35;;;;;;;0.78;76.83;98533.28;5135584;27;20568;-56
2021/12/16 04:20:41;;;;;;;5.75;3.25;;;;;;;0.73;76.37;98536.44;5152657;27;20046;-56
2021/12/16 04:23:09;;;;;;;4.68;2.85;;;;;;;0.77;77.39;98542.09;5153213;27;20073;-55
2021/12/16 04:25:38;;;;;;;4.57;3.05;;;;;;;0.82;76.54;98530.06;5135754;27;20083;-55
2021/12/16 04:28:13;;;;;;;5.18;3.30;;;;;;;0.79;77.04;98535.66;5152303;27;20043;-55
2021/12/16 04:30:41;;;;;;;5.20;2.97;;;;;;;0.80;76.54;98528.69;5152836;27;20114;-54
2021/12/16 04:33:08;;;;;;;4.13;2.90;;;;;;;0.85;76.11;98531.47;5135541;27;20042;-55
2021/12/16 04:35:35;;;;;;;4.68;2.80;;;;;;;0.87;76.84;98524.28;5152800;27;20043;-53
2021/12/16 04:38:00;;;;;;;7.68;3.13;;;;;;;0.85;76.53;98521.03;5153573;27;20042;-54
2021/12/16 04:40:29;;;;;;;4.22;3.00;;;;;;;0.90;76.66;98521.28;5152426;27;20415;-56
2021/12/16 04:43:01;;;;;;;4.28;2.90;;;;;;;0.99;76.99;98527.91;5135805;27;20047;-55
2021/12/16 04:45:33;;;;;;;3.92;2.40;;;;;;;0.98;76.55;98523.72;5136399;27;20121;-57
2021/12/16 04:48:05;;;;;;;3.88;2.67;;;;;;;1.03;76.90;98523.09;5151511;27;20078;-55
2021/12/16 04:50:35;;;;;;;4.88;2.80;;;;;;;1.04;76.06;98528.13;5119441;27;20449;-55
2021/12/16 04:53:02;;;;;;;4.93;3.25;;;;;;;1.06;76.90;98528.75;5152604;27;20037;-54
2021/12/16 04:55:32;;;;;;;4.28;2.72;;;;;;;1.00;76.11;98524.31;5151623;27;20054;-55
2021/12/16 04:57:58;;;;;;;4.53;2.75;;;;;;;0.90;76.04;98527.28;5152388;27;20047;-53
2021/12/16 05:00:25;;;;;;;4.22;2.70;;;;;;;0.98;77.09;98521.09;5153654;27;20049;-55
2021/12/16 05:03:03;;;;;;;3.60;2.47;;;;;;;1.05;76.01;98514.06;5152186;27;20043;-56
2021/12/16 05:05:34;;;;;;;3.97;2.42;;;;;;;1.07;76.70;98524.34;5151216;27;20049;-54
2021/12/16 05:08:01;;;;;;;3.78;2.55;;;;;;;1.11;76.90;98515.91;5151891;27;20524;-54
2021/12/16 05:10:35;;;;;;;3.42;2.55;;;;;;;1.07;76.65;98516.50;5151863;27;20046;-55
2021/12/16 05:13:22;;;;;;;2.92;2.30;;;;;;;1.11;76.13;98507.28;5152261;27;20579;-57
2021/12/16 05:15:49;;;;;;;5.30;2.88;;;;;;;1.07;76.73;98512.09;5151611;27;20047;-58
2021/12/16 05:18:24;;;;;;;4.07;2.55;;;;;;;1.05;76.67;98513.28;5151846;27;20047;-59
2021/12/16 05:20:55;;;;;;;3.13;2.50;;;;;;;1.04;77.03;98499.44;5151975;27;20121;-60
2021/12/16 05:28:35;;;;;;;3.65;2.53;;;;;;;1.23;76.83;98500.47;5151394;27;20035;-55
2021/12/16 05:31:03;;;;;;;5.32;2.60;;;;;;;1.22;76.72;98493.63;5116470;27;20039;-57
2021/12/16 05:33:35;;;;;;;3.72;2.78;;;;;;;1.21;77.09;98494.66;5151500;27;20508;-55
2021/12/16 05:36:02;;;;;;;3.10;2.40;;;;;;;1.29;76.75;98488.41;5151611;27;20047;-54
2021/12/16 05:38:29;;;;;;;4.30;2.42;;;;;;;1.39;77.11;98494.06;5146010;27;20415;-58
2021/12/16 05:40:57;;;;;;;3.60;2.60;;;;;;;1.26;76.74;98481.78;5126896;27;20519;-56
2021/12/16 05:43:31;;;;;;;3.85;2.63;;;;;;;1.35;77.74;98477.16;5140393;27;20074;-56
2021/12/16 05:45:59;;;;;;;3.33;2.53;;;;;;;1.39;76.97;98480.22;5153557;27;20129;-56
2021/12/16 05:48:28;;;;;;;4.03;2.63;;;;;;;1.42;77.80;98475.38;5152517;27;20087;-57
2021/12/16 05:51:04;;;;;;;5.38;2.70;;;;;;;1.39;76.65;98472.38;5140318;27;20049;-57
2021/12/16 05:53:31;;;;;;;3.38;2.78;;;;;;;1.30;77.09;98469.97;5153850;27;20041;-57
2021/12/16 05:55:58;;;;;;;4.70;3.13;;;;;;;1.31;78.12;98458.50;5153734;27;20120;-57
2021/12/16 05:58:28;;;;;;;4.03;2.70;;;;;;;1.34;77.73;98459.91;5153636;27;20408;-57
2021/12/16 06:01:02;;;;;;;4.22;2.85;;;;;;;1.30;77.64;98461.31;5154583;27;20041;-57
2021/12/16 06:03:30;;;;;;;5.15;3.05;;;;;;;1.36;77.84;98463.13;5152489;27;20424;-56
2021/12/16 06:05:56;;;;;;;3.10;2.47;;;;;;;1.38;77.84;98450.66;5138895;27;20038;-58
2021/12/16 06:08:22;;;;;;;5.13;3.05;;;;;;;1.33;77.91;98453.88;5156349;27;20054;-57
2021/12/16 06:13:31;;;;;;;3.72;2.38;;;;;;;1.45;78.02;98443.66;5156115;27;20039;-57
2021/12/16 06:29:19;;;;;;;4.57;2.80;;;;;;;1.51;77.30;98436.81;5156049;27;20039;-54
2021/12/16 06:31:45;;;;;;;4.20;2.85;;;;;;;1.52;77.75;98438.41;5153711;27;20048;-56
2021/12/16 06:34:11;;;;;;;4.00;2.90;;;;;;;1.58;77.36;98442.81;5153862;27;20117;-55
2021/12/16 06:36:37;;;;;;;5.93;3.22;;;;;;;1.52;77.89;98439.22;5150571;27;20038;-58
2021/12/16 06:39:04;;;;;;;4.22;2.92;;;;;;;1.57;77.39;98436.00;5151544;27;20043;-55
2021/12/16 06:41:38;;;;;;;4.65;3.28;;;;;;;1.58;78.27;98446.22;5154428;27;20121;-58
2021/12/16 06:44:24;;;;;;;4.93;2.97;;;;;;;1.60;78.18;98451.28;5154531;27;20049;-55
2021/12/16 06:46:53;;;;;;;5.70;3.03;;;;;;;1.61;77.63;98450.25;5152626;27;20446;-55
2021/12/16 06:49:21;;;;;;;5.57;3.17;;;;;;;1.62;78.50;98441.44;5154009;27;20039;-54
2021/12/16 06:51:54;;;;;;;6.03;2.58;;;;;;;1.66;77.45;98434.78;5154250;27;20062;-53
2021/12/16 06:54:26;;;;;;;4.78;3.33;;;;;;;1.74;78.10;98437.19;5152244;27;20031;-51
2021/12/16 07:00:14;;;;;;;7.55;3.92;;;;;;;1.64;78.10;98446.44;5154418;27;20085;-57
2021/12/16 07:03:00;;;;;;;5.13;3.35;;;;;;;1.62;77.96;98451.06;5145463;27;20133;-59
2021/12/16 07:04:58;;;;;;;4.03;3.10;;;;;;;1.70;78.55;98446.41;5147324;27;20053;-58
2021/12/16 07:07:24;;;;;;;4.63;3.17;;;;;;;1.72;77.72;98447.03;5151629;27;20095;-55
2021/12/16 07:09:50;;;;;;;4.57;3.33;;;;;;;1.67;77.61;98454.66;5152543;27;20043;-56
2021/12/16 07:12:24;;;;;;;5.22;3.65;;;;;;;1.67;78.70;98452.06;5150806;27;20050;-57
2021/12/16 07:14:50;;;;;;;4.32;2.88;;;;;;;1.70;77.73;98443.00;5134455;27;20095;-56
2021/12/16 07:17:17;;;;;;;4.32;3.13;;;;;;;1.72;77.88;98438.41;5152441;27;20054;-56
2021/12/16 07:19:44;;;;;;;5.65;3.38;;;;;;;1.83;77.63;98440.41;5153635;27;20049;-57
2021/12/16 07:22:11;;;;;;;5.05;3.85;;;;;;;1.78;78.06;98445.41;5153649;27;20042;-55
2021/12/16 07:24:38;;;;;;;8.02;4.40;;;;;;;1.79;78.19;98449.63;5132364;27;20038;-57
2021/12/16 07:27:05;;;;;;;7.03;3.90;;;;;;;1.82;78.31;98449.22;5153647;27;20042;-60
2021/12/16 07:29:31;;;;;;;5.95;3.47;;;;;;;1.89;77.40;98457.88;5152707;27;20034;-58
2021/12/16 07:31:59;;;;;;;5.85;3.55;;;;;;;1.92;77.39;98446.22;5152322;27;20091;-56
2021/12/16 07:34:26;;;;;;;8.90;3.60;;;;;;;1.92;77.19;98444.38;5152976;27;20074;-55
2021/12/16 07:36:52;;;;;;;5.28;3.80;;;;;;;1.91;77.41;98447.19;5149581;27;20125;-56
2021/12/16 07:39:26;;;;;;;5.75;3.88;;;;;;;1.95;77.62;98451.03;5151759;27;20121;-57
2021/12/16 07:41:53;;;;;;;6.95;3.70;;;;;;;2.00;77.61;98445.97;5152518;27;20427;-55
2021/12/16 07:44:19;;;;;;;6.57;3.85;;;;;;;2.09;77.03;98446.53;5154589;27;20056;-58
2021/12/16 07:46:48;;;;;;;5.68;4.15;;;;;;;2.14;77.28;98442.31;5151335;27;20103;-54
2021/12/16 07:49:19;;;;;;;5.40;3.42;;;;;;;2.11;77.23;98434.88;5151320;27;20037;-58
2021/12/16 07:51:46;;;;;;;7.55;3.80;;;;;;;2.18;77.54;98433.06;5154443;27;20042;-56
2021/12/16 07:54:14;;;;;;;6.88;3.88;;;;;;;2.20;77.21;98428.41;5151212;27;20042;-59
2021/12/16 07:56:40;;;;;;;6.68;4.00;;;;;;;2.18;77.29;98408.72;5151704;27;20472;-56
2021/12/16 07:59:08;;;;;;;6.00;3.80;;;;;;;2.09;77.43;98418.63;5150796;27;20412;-58
2021/12/16 08:01:35;;;;;;;5.45;3.75;;;;;;;2.01;77.75;98418.84;5149710;27;20125;-55
2021/12/16 08:04:01;;;;;;;5.88;3.67;;;;;;;2.02;77.80;98417.81;5149729;27;20050;-58
2021/12/16 08:06:29;;;;;;;5.55;3.55;;;;;;;2.07;77.29;98412.00;5147222;27;20048;-57
2021/12/16 08:09:01;;;;;;;7.28;4.38;;;;;;;2.12;77.47;98401.69;5150836;27;20043;-59
2021/12/16 08:11:30;;;;;;;6.07;3.85;;;;;;;2.21;77.32;98395.25;5149775;27;20537;-58
2021/12/16 08:13:56;;;;;;;6.50;3.65;;;;;;;2.25;77.36;98401.66;5150080;27;20103;-58
2021/12/16 08:16:22;;;;;;;7.95;4.47;;;;;;;2.26;77.76;98408.47;5151467;27;20051;-57
2021/12/16 08:18:52;;;;;;;5.88;3.75;;;;;;;2.22;77.32;98408.09;5148077;27;20030;-57
2021/12/16 08:21:19;;;;;;;5.82;3.92;;;;;;;2.18;77.00;98396.47;5147899;27;20038;-57
2021/12/16 08:23:44;;;;;;;6.40;3.83;;;;;;;2.19;77.19;98400.66;5131427;27;20403;-58
2021/12/16 08:26:11;;;;;;;7.18;4.65;;;;;;;2.33;78.43;98398.81;5150629;27;20034;-59
2021/12/16 08:28:37;;;;;;;6.30;4.03;;;;;;;2.39;77.38;98397.97;5149075;27;20118;-60
2021/12/16 08:31:06;;;;;;;6.95;4.07;;;;;;;2.40;76.98;98386.50;5147865;27;20157;-59
2021/12/16 08:33:32;;;;;;;5.35;3.95;;;;;;;2.44;77.42;98392.09;5149781;27;20113;-62
2021/12/16 08:35:58;;;;;;;5.20;3.88;;;;;;;2.48;77.28;98391.50;5150455;27;20047;-59
2021/12/16 08:38:25;;;;;;;6.82;4.00;;;;;;;2.40;76.56;98391.72;5147992;27;20046;-61
2021/12/16 08:40:54;;;;;;;7.30;4.53;;;;;;;2.40;77.28;98391.72;5147093;27;20035;-57
2021/12/16 08:43:21;;;;;;;7.60;4.28;;;;;;;2.36;77.04;98398.41;5125267;27;20129;-59
2021/12/16 08:45:47;;;;;;;7.35;4.68;;;;;;;2.34;77.68;98391.75;5149016;27;20138;-58
2021/12/16 08:48:13;;;;;;;10.82;4.72;;;;;;;2.41;77.48;98389.91;5137099;27;20425;-59
2021/12/16 08:50:45;;;;;;;6.18;4.25;;;;;;;2.40;76.63;98377.84;5130799;27;20099;-58
2021/12/16 08:53:11;;;;;;;10.30;4.65;;;;;;;2.38;76.38;98379.84;5130383;27;20569;-58
2021/12/16 08:55:39;;;;;;;5.93;4.60;;;;;;;2.38;77.16;98375.47;5130383;27;20397;-61
2021/12/16 08:58:05;;;;;;;11.40;4.03;;;;;;;2.28;77.18;98370.66;5139102;27;20043;-60
2021/12/16 09:00:36;;;;;;;6.65;4.32;;;;;;;2.26;77.26;98375.31;5150247;27;20122;-61
2021/12/16 09:03:02;;;;;;;6.07;4.07;;;;;;;2.30;77.18;98367.06;5150712;27;20038;-61
2021/12/16 09:05:28;;;;;;;8.57;4.38;;;;;;;2.38;77.47;98361.56;5141124;27;20495;-58
2021/12/16 09:07:55;;;;;;;8.40;4.80;;;;;;;2.35;77.87;98359.34;5149969;27;20045;-67
2021/12/16 09:10:30;;;;;;;6.75;4.32;;;;;;;2.43;76.71;98344.22;5146038;27;20476;-57
2021/12/16 09:13:03;;;;;;;5.78;3.83;;;;;;;2.43;76.45;98330.34;5129075;27;20058;-58
2021/12/16 09:15:38;;;;;;;6.88;4.68;;;;;;;2.53;76.90;98332.50;5116465;27;20035;-58
2021/12/16 09:18:05;;;;;;;7.55;4.70;;;;;;;2.48;76.60;98328.72;5148941;27;20055;-60
2021/12/16 09:20:31;;;;;;;6.63;4.53;;;;;;;2.45;76.47;98331.75;5148442;27;20420;-59
2021/12/16 09:22:57;;;;;;;8.73;4.53;;;;;;;2.39;77.03;98329.97;5146788;27;20053;-59
2021/12/16 09:25:24;;;;;;;5.70;3.92;;;;;;;2.43;77.19;98336.38;5148910;27;20050;-58
2021/12/16 09:27:50;;;;;;;6.93;4.25;;;;;;;2.53;76.96;98322.84;5149484;27;20489;-62
2021/12/16 09:30:20;;;;;;;10.70;4.95;;;;;;;2.60;76.27;98338.50;5149892;27;20039;-62
2021/12/16 09:32:48;;;;;;;9.65;5.30;;;;;;;2.56;76.48;98329.44;5133403;27;20047;-61
2021/12/16 09:35:14;;;;;;;9.40;4.80;;;;;;;2.55;77.14;98326.03;5150067;27;20107;-61
2021/12/16 09:37:41;;;;;;;8.18;5.00;;;;;;;2.54;76.81;98326.28;5148595;27;20042;-62
2021/12/16 09:40:12;;;;;;;6.70;4.25;;;;;;;2.49;76.84;98334.72;5152065;27;20050;-60
2021/12/16 09:42:39;;;;;;;7.65;4.20;;;;;;;2.55;76.75;98330.47;5150624;27;20497;-60
2021/12/16 09:45:08;;;;;;;5.75;4.18;;;;;;;2.58;76.90;98323.00;5150924;27;20667;-59
2021/12/16 09:47:36;;;;;;;6.50;4.57;;;;;;;2.56;76.63;98309.34;5149895;27;20513;-62
2021/12/16 09:50:04;;;;;;;8.05;4.15;;;;;;;2.63;77.20;98304.84;5151673;27;20046;-61
2021/12/16 09:52:30;;;;;;;7.72;4.38;;;;;;;2.63;76.42;98301.44;5131721;27;20123;-60
2021/12/16 09:54:56;;;;;;;7.13;4.35;;;;;;;2.64;76.81;98297.81;5150387;27;20107;-61
2021/12/16 09:57:22;;;;;;;10.68;4.88;;;;;;;2.56;77.12;98292.84;5131856;27;20346;-61
2021/12/16 09:59:48;;;;;;;7.18;4.38;;;;;;;2.56;77.35;98290.22;5151310;27;20488;-60
2021/12/16 10:02:17;;;;;;;9.73;4.55;;;;;;;2.68;77.57;98291.16;5149334;27;20134;-61
2021/12/16 10:04:44;;;;;;;7.65;4.60;;;;;;;2.67;76.80;98279.84;5149655;27;20527;-61
2021/12/16 10:07:14;;;;;;;6.10;4.40;;;;;;;2.66;77.01;98288.75;5149387;27;20613;-61
2021/12/16 10:09:42;;;;;;;12.73;5.53;;;;;;;2.58;77.13;98277.72;5128793;27;20035;-61
2021/12/16 10:12:14;;;;;;;8.15;4.45;;;;;;;2.54;77.08;98281.78;5150779;27;20049;-60
2021/12/16 10:17:29;;;;;;;7.75;4.30;;;;;;;2.68;76.88;98272.84;5138754;27;20122;-60
2021/12/16 10:20:00;;;;;;;7.35;4.00;;;;;;;2.66;76.66;98270.41;5150620;27;20049;-61
2021/12/16 10:22:33;;;;;;;8.40;4.95;;;;;;;2.61;77.63;98279.91;5149240;27;20107;-61
2021/12/16 10:25:17;;;;;;;8.95;4.60;;;;;;;2.68;77.48;98278.06;5149245;27;20503;-62
2021/12/16 10:28:09;;;;;;;10.50;5.07;;;;;;;2.76;77.37;98267.31;5148681;27;20047;-61
2021/12/16 10:31:00;;;;;;;6.93;4.18;;;;;;;2.75;76.33;98260.50;5151755;27;20062;-61
2021/12/16 10:33:37;;;;;;;7.72;4.57;;;;;;;2.68;76.60;98257.94;5152258;27;20504;-61
2021/12/16 10:36:11;;;;;;;13.43;5.40;;;;;;;2.67;76.62;98248.47;5152126;27;20137;-61
2021/12/16 10:38:42;;;;;;;7.78;4.68;;;;;;;2.65;76.93;98247.09;5153369;27;20089;-60
2021/12/16 10:41:11;;;;;;;7.38;4.90;;;;;;;2.66;77.36;98244.25;5152097;27;20039;-61
2021/12/16 10:43:41;;;;;;;8.70;4.18;;;;;;;2.72;77.16;98247.84;5150075;27;20087;-60
2021/12/16 10:46:18;;;;;;;9.10;5.07;;;;;;;2.69;76.54;98240.41;5152557;27;20499;-59
2021/12/16 10:48:46;;;;;;;8.02;4.88;;;;;;;2.68;77.21;98233.59;5129244;27;20046;-60
2021/12/16 10:51:49;;;;;;;8.73;5.10;;;;;;;2.67;77.09;98234.59;5136067;27;20066;-59
2021/12/16 10:54:17;;;;;;;9.55;5.20;;;;;;;2.61;77.76;98227.59;5144187;27;20125;-59
2021/12/16 10:56:48;;;;;;;6.95;4.32;;;;;;;2.55;77.50;98218.78;5152079;27;20438;-59
2021/12/16 10:59:52;;;;;;;9.48;5.15;;;;;;;2.66;77.61;98219.91;5150873;27;20034;-61
2021/12/16 11:02:21;;;;;;;6.85;3.88;;;;;;;2.68;76.83;98221.31;5150574;27;20049;-62
2021/12/16 11:04:47;;;;;;;7.13;4.97;;;;;;;2.62;77.07;98216.13;5151423;27;20035;-61
2021/12/16 11:07:30;;;;;;;8.13;3.95;;;;;;;2.68;76.95;98217.88;5131822;27;20054;-62
2021/12/16 11:09:58;;;;;;;7.30;4.40;;;;;;;2.67;77.33;98201.38;5134854;27;20496;-62
2021/12/16 11:12:31;;;;;;;9.73;4.70;;;;;;;2.75;77.34;98202.13;5150409;27;20057;-61
2021/12/16 11:15:03;;;;;;;7.30;5.00;;;;;;;2.76;76.71;98188.81;5132925;27;20046;-60
2021/12/16 11:17:34;;;;;;;6.82;4.90;;;;;;;2.75;77.19;98178.56;5152408;27;20055;-64
2021/12/16 11:20:07;;;;;;;8.65;4.93;;;;;;;2.76;76.84;98180.16;5151843;27;20397;-60
2021/12/16 11:22:36;;;;;;;9.32;4.85;;;;;;;2.82;77.41;98174.06;5152195;27;20600;-57
2021/12/16 11:25:15;;;;;;;10.40;5.15;;;;;;;2.80;77.13;98179.53;5153110;27;20035;-56
2021/12/16 11:27:42;;;;;;;7.05;4.50;;;;;;;2.78;77.09;98173.69;5146171;27;20043;-59
2021/12/16 11:30:53;;;;;;;7.53;4.82;;;;;;;2.72;76.67;98179.81;5142505;27;20039;-59
2021/12/16 11:33:39;;;;;;;7.40;5.03;;;;;;;2.65;80.07;98186.94;5153266;27;20171;-60
2021/12/16 11:36:12;;;;;;;8.88;5.45;;;;;;;2.70;81.28;98180.00;5152333;27;20138;-61
2021/12/16 11:38:48;;;;;;;8.52;5.50;;;;;;;2.73;80.09;98182.19;5150683;27;20072;-60
2021/12/16 11:41:27;;;;;;;10.35;5.60;;;;;;;2.73;78.32;98179.56;5148966;27;20122;-60
2021/12/16 11:44:00;;;;;;;9.55;5.95;;;;;;;2.70;77.61;98174.78;5151213;27;20057;-59
2021/12/16 11:46:47;;;;;;;8.45;5.80;;;;;;;2.66;78.47;98172.81;5151855;27;20077;-61
2021/12/16 11:49:25;;;;;;;9.55;5.38;;;;;;;2.67;78.07;98171.78;5152484;27;20042;-59
2021/12/16 11:51:59;;;;;;;10.73;6.90;;;;;;;2.77;77.69;98168.69;5152856;27;20129;-58
2021/12/16 11:54:30;;;;;;;8.75;5.07;;;;;;;2.72;78.20;98171.94;5151252;27;20110;-61
2021/12/16 11:57:19;;;;;;;9.90;7.32;;;;;;;2.66;77.50;98170.19;5151207;27;20054;-60
2021/12/16 11:59:51;;;;;;;11.88;6.97;;;;;;;2.65;78.60;98173.84;5149983;27;20042;-62
2021/12/16 12:02:26;;;;;;;9.43;6.22;;;;;;;2.54;77.99;98179.78;5152253;27;20039;-62
2021/12/16 12:04:53;;;;;;;10.70;5.72;;;;;;;2.60;78.09;98177.09;5149845;27;20042;-62
2021/12/16 12:07:20;;;;;;;13.25;6.68;;;;;;;2.55;78.20;98176.13;5149398;27;20311;-62
2021/12/16 12:09:49;;;;;;;12.27;6.70;;;;;;;2.53;78.23;98170.31;5152838;27;20037;-61
2021/12/16 12:12:15;;;;;;;15.60;6.57;;;;;;;2.60;78.14;98177.09;5152074;27;20404;-61
2021/12/16 12:14:43;;;;;;;8.57;5.93;;;;;;;2.48;78.29;98178.81;5150138;27;20498;-60
2021/12/16 12:17:17;;;;;;;8.52;5.47;;;;;;;2.51;79.04;98175.78;5113314;27;20061;-59
2021/12/16 12:19:47;;;;;;;10.18;5.70;;;;;;;2.57;78.73;98176.72;5148284;27;20103;-59
2021/12/16 12:22:14;;;;;;;8.95;5.93;;;;;;;2.51;78.67;98173.16;5145948;27;20043;-59
2021/12/16 12:24:44;;;;;;;9.10;5.40;;;;;;;2.55;79.00;98165.66;5148713;27;20508;-59
2021/12/16 12:27:21;;;;;;;8.18;5.45;;;;;;;2.42;78.66;98149.09;5151938;27;20127;-61
2021/12/16 12:29:59;;;;;;;11.18;6.30;;;;;;;2.47;78.81;98157.09;5146661;27;20043;-60
2021/12/16 12:32:29;;;;;;;9.15;6.05;;;;;;;2.47;78.69;98143.19;5147746;27;20121;-62
2021/12/16 12:34:59;;;;;;;10.35;6.20;;;;;;;2.56;78.97;98149.78;5148511;27;20122;-61
2021/12/16 12:37:27;;;;;;;11.82;6.47;;;;;;;2.57;79.03;98142.72;5148943;27;20049;-62
2021/12/16 12:40:00;;;;;;;9.65;5.93;;;;;;;2.63;78.65;98139.22;5149230;27;20393;-64
2021/12/16 12:42:26;;;;;;;11.07;6.40;;;;;;;2.60;78.70;98144.91;5148411;27;20129;-59
2021/12/16 12:44:52;;;;;;;8.15;5.47;;;;;;;2.59;78.99;98141.50;5148599;27;20043;-59
2021/12/16 12:47:23;;;;;;;9.35;5.82;;;;;;;2.48;78.72;98142.19;5149689;27;20091;-61
2021/12/16 12:49:49;;;;;;;;;;;;;;;2.46;79.03;98138.97;5149795;27;20034;-60
2021/12/16 12:52:18;;;;;;;9.57;5.53;;;;;;;2.40;79.22;98135.41;5149012;27;19923;-61
2021/12/16 12:55:18;;;;;;;8.95;5.25;;;;;;;2.47;79.13;98132.72;5149216;27;20122;-60
2021/12/16 12:57:46;;;;;;;10.02;5.47;;;;;;;2.34;79.16;98128.44;5148981;27;20137;-62
2021/12/16 13:00:27;;;;;;;11.80;5.68;;;;;;;2.36;79.75;98130.84;5147921;27;20087;-58
2021/12/16 13:03:00;;;;;;;8.88;5.10;;;;;;;2.46;79.26;98126.69;5143735;27;20047;-60
2021/12/16 13:05:26;;;;;;;7.30;5.05;;;;;;;2.39;78.79;98128.59;5147584;27;20035;-60
2021/12/16 13:08:02;;;;;;;20.92;6.35;;;;;;;2.41;79.01;98118.72;5148407;27;20042;-61
2021/12/16 13:10:41;;;;;;;11.10;4.82;;;;;;;2.45;78.70;98119.88;5132481;27;20035;-61
2021/12/16 13:16:21;;;;;;;8.52;5.00;;;;;;;2.41;78.80;98131.81;5148443;27;20069;-58
2021/12/16 13:30:05;;;;;;;7.55;4.57;;;;;;;2.67;77.79;98111.59;5148719;27;20087;-58
2021/12/16 13:32:46;;;;;;;7.85;4.85;;;;;;;2.72;77.81;98109.16;5129445;27;20480;-59
2021/12/16 13:35:32;;;;;;;6.68;4.60;;;;;;;2.54;77.76;98106.53;5149264;27;20031;-58
2021/12/16 13:37:59;;;;;;;8.52;4.72;;;;;;;2.44;78.56;98102.59;5147875;27;20083;-59
2021/12/16 13:40:28;;;;;;;8.07;4.90;;;;;;;2.55;78.12;98102.88;5150006;27;20110;-61
2021/12/16 13:43:05;;;;;;;7.18;4.97;;;;;;;2.60;77.70;98100.44;5150446;27;20058;-60
2021/12/16 13:45:41;;;;;;;7.95;4.88;;;;;;;2.52;78.53;98083.19;5146922;27;20038;-58
2021/12/16 14:02:06;;;;;;;7.70;5.20;;;;;;;2.58;77.83;98042.28;5150224;27;20077;-60
2021/12/16 14:04:37;;;;;;;7.00;5.28;;;;;;;2.70;77.81;98041.31;5151269;27;20121;-58
2021/12/16 14:10:18;;;;;;;7.93;5.30;;;;;;;2.63;77.35;98038.00;5153006;27;20042;-59
2021/12/16 14:41:14;;;;;;;7.35;4.57;;;;;;;2.39;78.88;98034.44;5151242;27;20389;-59
2021/12/16 14:43:54;;;;;;;6.70;4.88;;;;;;;2.40;78.84;98033.41;5151641;27;20042;-59
2021/12/16 14:46:27;;;;;;;8.00;4.70;;;;;;;2.46;78.39;98035.16;5151085;27;20043;-59
2021/12/16 14:48:53;;;;;;;8.63;4.53;;;;;;;2.50;78.17;98031.09;5151559;27;20103;-59
2021/12/16 14:51:19;;;;;;;21.25;5.72;;;;;;;2.48;78.40;98030.53;5152577;27;20047;-58
2021/12/16 14:53:49;;;;;;;18.08;5.72;;;;;;;2.46;78.79;98019.47;5153331;27;20035;-59
2021/12/16 14:56:17;;;;;;;5.97;4.43;;;;;;;2.52;78.25;98020.41;5153113;27;20067;-60
2021/12/16 14:58:46;;;;;;;7.32;4.15;;;;;;;2.57;78.04;98025.00;5151814;27;20089;-59
2021/12/16 15:01:18;;;;;;;41.23;8.30;;;;;;;2.62;77.69;98012.06;5151524;27;20065;-59
2021/12/16 15:03:45;;;;;;;8.65;5.22;;;;;;;2.66;77.50;98011.38;5132241;27;20031;-59
2021/12/16 15:06:22;;;;;;;7.05;4.68;;;;;;;2.67;77.29;98004.34;5153518;27;20091;-60
2021/12/16 15:09:13;;;;;;;7.18;4.57;;;;;;;2.64;77.94;98000.34;5150955;27;20093;-59
2021/12/16 15:14:33;;;;;;;19.73;6.18;;;;;;;2.54;77.76;97996.66;5152665;27;20079;-59
2021/12/16 15:17:22;;;;;;;11.43;4.95;;;;;;;2.57;77.83;98006.69;5151485;27;20501;-60
2021/12/16 15:45:13;;;;;;;8.00;5.15;;;;;;;2.48;78.33;97998.34;5151933;27;20126;-58
2021/12/16 15:47:40;;;;;;;5.77;4.40;;;;;;;2.49;78.26;98013.78;5151607;27;20436;-58
2021/12/16 15:50:08;;;;;;;8.18;4.80;;;;;;;2.49;78.09;98005.94;5152168;27;20349;-59
2021/12/16 15:52:46;;;;;;;7.93;5.13;;;;;;;2.46;78.08;98013.44;5134006;27;20039;-59
2021/12/16 15:55:45;;;;;;;7.82;5.03;;;;;;;2.44;78.81;98005.00;5153384;27;20087;-59
2021/12/16 15:58:25;;;;;;;6.40;4.40;;;;;;;2.41;78.20;98001.03;5151720;27;20157;-57